createdAt,value
2023-01-07T00:01:59.467Z,8.30
2023-01-07T00:06:03.350Z,8.30
2023-01-07T00:10:05.580Z,8.30
2023-01-07T00:14:11.376Z,8.40
2023-01-07T00:18:13.471Z,8.30
2023-01-07T00:22:15.391Z,8.30
2023-01-07T00:26:20.477Z,8.30
2023-01-07T00:30:22.724Z,8.30
2023-01-07T00:34:25.251Z,8.30
2023-01-07T00:38:27.141Z,8.30
2023-01-07T00:42:47.360Z,8.20
2023-01-07T00:46:49.284Z,8.20
2023-01-07T00:50:53.191Z,8.20
2023-01-07T00:54:55.204Z,8.20
2023-01-07T00:58:57.055Z,8.20
2023-01-07T01:02:59.522Z,8.20
2023-01-07T01:07:01.372Z,8.20
2023-01-07T01:11:08.866Z,8.30
2023-01-07T01:15:13.179Z,8.30
2023-01-07T01:19:15.803Z,8.40
2023-01-07T01:23:17.698Z,8.30
2023-01-07T01:27:19.976Z,8.30
2023-01-07T01:31:21.780Z,8.30
2023-01-07T01:35:26.264Z,8.30
2023-01-07T01:39:28.717Z,8.30
2023-01-07T01:43:34.714Z,8.30
2023-01-07T01:48:09.648Z,8.20
2023-01-07T01:52:18.418Z,8.20
2023-01-07T01:56:25.363Z,8.30
2023-01-07T02:00:28.054Z,8.30
2023-01-07T02:04:31.082Z,8.30
2023-01-07T02:08:32.976Z,8.30
2023-01-07T02:13:05.132Z,8.20
2023-01-07T02:17:12.817Z,8.30
2023-01-07T02:21:40.723Z,8.30
2023-01-07T02:26:07.465Z,8.30
2023-01-07T02:30:35.983Z,8.20
2023-01-07T02:34:55.095Z,8.40
2023-01-07T02:39:00.445Z,8.20
2023-01-07T02:43:27.461Z,8.10
2023-01-07T02:47:52.372Z,7.90
2023-01-07T02:51:54.864Z,8.10
2023-01-07T02:56:19.435Z,8.20
2023-01-07T03:00:38.544Z,8.20
2023-01-07T03:05:07.016Z,8.10
2023-01-07T03:09:14.696Z,8.10
2023-01-07T03:13:17.787Z,8.30
2023-01-07T03:17:25.080Z,8.20
2023-01-07T03:21:28.225Z,8.30
2023-01-07T03:25:32.003Z,8.20
2023-01-07T03:29:35.716Z,8.20
2023-01-07T03:33:50.543Z,8.20
2023-01-07T03:37:53.718Z,8.20
2023-01-07T03:42:14.894Z,8.10
2023-01-07T03:46:17.892Z,8.10
2023-01-07T03:50:20.600Z,8.10
2023-01-07T03:54:23.850Z,8.20
2023-01-07T03:58:25.812Z,8.00
2023-01-07T04:02:27.791Z,7.90
2023-01-07T04:06:29.789Z,8.00
2023-01-07T04:10:31.696Z,8.00
2023-01-07T04:14:33.607Z,8.10
2023-01-07T04:18:35.454Z,8.00
2023-01-07T04:22:37.480Z,8.10
2023-01-07T04:26:40.741Z,8.10
2023-01-07T04:30:43.180Z,8.10
2023-01-07T04:34:45.227Z,8.10
2023-01-07T04:38:47.591Z,8.00
2023-01-07T04:42:49.739Z,8.10
2023-01-07T04:46:52.380Z,8.10
2023-01-07T04:50:55.162Z,8.10
2023-01-07T04:54:57.430Z,8.10
2023-01-07T04:58:59.368Z,8.10
2023-01-07T05:03:01.675Z,8.10
2023-01-07T05:07:03.804Z,8.10
2023-01-07T05:11:06.246Z,8.00
2023-01-07T05:15:09.114Z,8.00
2023-01-07T05:19:14.073Z,7.90
2023-01-07T05:23:20.707Z,8.20
2023-01-07T05:27:23.937Z,8.10
2023-01-07T05:31:25.985Z,8.10
2023-01-07T05:35:27.883Z,8.10
2023-01-07T05:39:29.819Z,8.00
2023-01-07T05:43:32.102Z,8.00
2023-01-07T05:47:33.880Z,8.00
2023-01-07T05:51:35.907Z,8.00
2023-01-07T05:55:40.852Z,7.90
2023-01-07T05:59:42.617Z,8.00
2023-01-07T06:03:44.474Z,7.90
2023-01-07T06:07:46.339Z,7.90
2023-01-07T06:11:48.338Z,7.90
2023-01-07T06:15:50.153Z,7.90
2023-01-07T06:19:51.953Z,7.90
2023-01-07T06:23:53.803Z,7.90
2023-01-07T06:27:58.009Z,7.90
2023-01-07T06:31:59.937Z,8.10
2023-01-07T06:36:01.757Z,7.90
2023-01-07T06:40:04.457Z,7.90
2023-01-07T06:44:06.311Z,7.80
2023-01-07T06:48:08.183Z,7.80
2023-01-07T06:52:10.143Z,7.80
2023-01-07T06:56:11.892Z,8.00
2023-01-07T07:00:14.187Z,7.80
2023-01-07T07:04:15.956Z,7.80
2023-01-07T07:08:17.753Z,7.80
2023-01-07T07:12:19.742Z,7.80
2023-01-07T07:16:24.003Z,7.70
2023-01-07T07:20:25.828Z,7.70
2023-01-07T07:24:27.663Z,7.70
2023-01-07T07:28:29.487Z,7.80
2023-01-07T07:32:31.263Z,7.80
2023-01-07T07:36:33.122Z,7.70
2023-01-07T07:40:34.888Z,7.70
2023-01-07T07:44:36.712Z,7.80
2023-01-07T07:48:39.694Z,7.70
2023-01-07T07:52:41.559Z,7.70
2023-01-07T07:56:43.405Z,7.70
2023-01-07T08:00:45.402Z,7.70
2023-01-07T08:04:47.213Z,7.70
2023-01-07T08:08:48.964Z,7.70
2023-01-07T08:12:50.896Z,7.80
2023-01-07T08:16:52.745Z,7.80
2023-01-07T08:20:55.773Z,7.80
2023-01-07T08:24:57.576Z,7.80
2023-01-07T08:28:59.333Z,8.10
2023-01-07T08:33:02.998Z,7.90
2023-01-07T08:37:04.745Z,8.00
2023-01-07T08:41:06.581Z,7.90
2023-01-07T08:45:10.296Z,8.00
2023-01-07T08:49:12.125Z,8.00
2023-01-07T08:53:13.892Z,7.40
2023-01-07T08:57:17.040Z,7.50
2023-01-07T09:01:19.012Z,7.70
2023-01-07T09:05:21.008Z,7.70
2023-01-07T09:09:22.939Z,7.70
2023-01-07T09:13:24.693Z,7.60
2023-01-07T09:17:26.591Z,7.40
2023-01-07T09:21:28.381Z,7.40
2023-01-07T09:25:30.170Z,7.50
2023-01-07T09:29:31.890Z,7.50
2023-01-07T09:33:34.241Z,7.50
2023-01-07T09:37:36.179Z,7.80
2023-01-07T09:41:43.861Z,7.50
2023-01-07T09:45:47.232Z,7.60
2023-01-07T09:49:54.395Z,7.50
2023-01-07T09:54:00.415Z,7.60
2023-01-07T09:58:02.539Z,7.60
2023-01-07T10:02:39.561Z,7.60
2023-01-07T10:06:51.324Z,7.60
2023-01-07T10:10:59.992Z,7.00
2023-01-07T10:15:16.645Z,7.00
2023-01-07T10:19:28.661Z,7.50
2023-01-07T10:23:36.922Z,7.80
2023-01-07T10:27:42.879Z,7.80
2023-01-07T10:31:45.756Z,7.90
2023-01-07T10:35:52.201Z,7.70
2023-01-07T10:40:22.757Z,7.70
2023-01-07T10:44:43.041Z,7.50
2023-01-07T10:49:06.434Z,7.50
2023-01-07T10:53:29.420Z,7.40
2023-01-07T10:57:32.821Z,7.30
2023-01-07T11:01:39.569Z,7.70
2023-01-07T11:05:42.029Z,7.60
2023-01-07T11:09:46.678Z,7.70
2023-01-07T11:14:19.390Z,7.70
2023-01-07T11:18:40.980Z,7.60
2023-01-07T11:22:42.872Z,7.60
2023-01-07T11:26:46.165Z,7.70
2023-01-07T11:30:58.577Z,7.80
2023-01-07T11:35:05.554Z,8.00
2023-01-07T11:39:21.947Z,7.40
2023-01-07T11:43:25.263Z,7.40
2023-01-07T11:47:27.166Z,7.60
2023-01-07T11:51:40.139Z,7.90
2023-01-07T11:55:58.028Z,7.70
2023-01-07T12:00:28.712Z,7.80
2023-01-07T12:04:36.380Z,7.80
2023-01-07T12:08:41.875Z,7.50
2023-01-07T12:12:44.637Z,7.80
2023-01-07T12:16:47.631Z,7.60
2023-01-07T12:21:01.562Z,8.00
2023-01-07T12:25:23.634Z,7.70
2023-01-07T12:29:50.084Z,7.40
2023-01-07T12:34:05.948Z,7.80
2023-01-07T12:38:20.549Z,7.90
2023-01-07T12:42:31.694Z,7.60
2023-01-07T12:47:31.355Z,7.40
2023-01-07T12:51:25.331Z,7.50
2023-01-07T12:55:37.406Z,7.50
2023-01-07T12:59:48.428Z,7.20
2023-01-07T13:04:16.967Z,7.70
2023-01-07T13:08:43.023Z,7.80
2023-01-07T13:12:47.480Z,8.10
2023-01-07T13:16:49.595Z,7.80
2023-01-07T13:21:00.293Z,7.60
2023-01-07T13:25:32.922Z,7.80
2023-01-07T13:30:33.785Z,8.10
2023-01-07T13:35:03.192Z,8.20
2023-01-07T13:39:33.875Z,8.40
2023-01-07T13:43:55.594Z,8.20
2023-01-07T13:48:00.367Z,8.30
2023-01-07T13:52:20.536Z,7.80
2023-01-07T13:56:22.602Z,7.50
2023-01-07T14:01:00.436Z,7.20
2023-01-07T14:05:11.332Z,7.60
2023-01-07T14:09:25.860Z,7.20
2023-01-07T14:13:39.929Z,7.40
2023-01-07T14:17:51.655Z,7.30
2023-01-07T14:22:09.388Z,7.60
2023-01-07T14:26:36.401Z,7.60
2023-01-07T14:30:50.227Z,8.00
2023-01-07T14:35:01.811Z,7.60
2023-01-07T14:39:03.723Z,7.20
2023-01-07T14:43:40.729Z,7.60
2023-01-07T14:47:45.804Z,7.40
2023-01-07T14:52:15.507Z,6.80
2023-01-07T14:56:54.865Z,6.70
2023-01-07T15:01:08.807Z,6.80
2023-01-07T15:05:42.957Z,7.20
2023-01-07T15:10:09.240Z,7.20
2023-01-07T15:14:41.910Z,6.80
2023-01-07T15:18:54.266Z,7.00
2023-01-07T15:23:20.146Z,7.30
2023-01-07T15:27:53.996Z,7.40
2023-01-07T15:32:19.228Z,7.30
2023-01-07T15:36:21.166Z,7.30
2023-01-07T15:40:25.787Z,7.40
2023-01-07T15:44:38.911Z,7.40
2023-01-07T15:48:42.101Z,7.40
2023-01-07T15:52:55.553Z,7.30
2023-01-07T15:57:10.423Z,7.20
2023-01-07T16:01:20.983Z,7.10
2023-01-07T16:05:25.171Z,6.90
2023-01-07T16:09:28.303Z,6.90
2023-01-07T16:13:31.000Z,6.80
2023-01-07T16:17:32.912Z,6.60
2023-01-07T16:21:41.706Z,6.50
2023-01-07T16:25:49.862Z,6.50
2023-01-07T16:29:54.703Z,6.30
2023-01-07T16:33:59.700Z,6.20
2023-01-07T16:38:03.576Z,6.10
2023-01-07T16:42:20.711Z,5.80
2023-01-07T16:46:35.965Z,5.80
2023-01-07T16:50:42.697Z,5.80
2023-01-07T16:54:48.806Z,5.70
2023-01-07T16:58:53.737Z,5.60
2023-01-07T17:02:59.656Z,5.60
2023-01-07T17:07:02.193Z,5.20
2023-01-07T17:11:18.157Z,5.40
2023-01-07T17:15:20.033Z,5.30
2023-01-07T17:19:25.464Z,5.30
2023-01-07T17:23:27.605Z,5.20
2023-01-07T17:27:31.055Z,5.00
2023-01-07T17:31:32.966Z,5.00
2023-01-07T17:35:44.905Z,5.00
2023-01-07T17:39:46.749Z,4.90
2023-01-07T17:43:48.626Z,4.80
2023-01-07T17:47:50.586Z,4.80
2023-01-07T17:51:54.589Z,4.60
2023-01-07T17:55:56.896Z,4.60
2023-01-07T17:59:58.911Z,4.60
2023-01-07T18:04:00.808Z,3.60
2023-01-07T18:08:02.694Z,3.80
2023-01-07T18:12:23.102Z,4.10
2023-01-07T18:16:25.783Z,4.10
2023-01-07T18:20:27.712Z,4.10
2023-01-07T18:24:29.532Z,4.10
2023-01-07T18:28:31.692Z,4.20
2023-01-07T18:32:33.495Z,4.30
2023-01-07T18:36:35.769Z,4.10
2023-01-07T18:40:38.565Z,4.00
2023-01-07T18:44:40.412Z,4.10
2023-01-07T18:48:42.302Z,4.00
2023-01-07T18:52:44.259Z,4.00
2023-01-07T18:56:46.212Z,3.80
2023-01-07T19:00:48.025Z,3.80
2023-01-07T19:04:50.578Z,3.80
2023-01-07T19:08:52.605Z,3.80
2023-01-07T19:12:54.411Z,3.80
2023-01-07T19:16:56.950Z,3.60
2023-01-07T19:21:05.680Z,3.60
2023-01-07T19:25:08.057Z,3.60
2023-01-07T19:29:11.702Z,3.60
2023-01-07T19:33:14.671Z,3.50
2023-01-07T19:37:16.542Z,3.40
2023-01-07T19:41:20.288Z,3.30
2023-01-07T19:45:22.223Z,3.20
2023-01-07T19:49:24.101Z,3.20
2023-01-07T19:53:26.666Z,3.10
2023-01-07T19:57:29.042Z,3.20
2023-01-07T20:01:31.174Z,3.10
2023-01-07T20:05:33.143Z,3.20
2023-01-07T20:09:35.023Z,3.30
2023-01-07T20:13:38.284Z,3.10
2023-01-07T20:17:40.121Z,3.10
2023-01-07T20:21:42.294Z,3.10
2023-01-07T20:25:44.136Z,2.90
2023-01-07T20:29:46.092Z,2.70
2023-01-07T20:33:49.294Z,2.80
2023-01-07T20:37:51.139Z,2.90
2023-01-07T20:41:53.095Z,2.90
2023-01-07T20:45:59.286Z,2.60
2023-01-07T20:50:01.244Z,2.40
2023-01-07T20:54:03.190Z,2.50
2023-01-07T20:58:05.004Z,2.50
2023-01-07T21:02:07.413Z,2.70
2023-01-07T21:06:12.437Z,2.70
2023-01-07T21:10:16.657Z,2.60
2023-01-07T21:14:18.474Z,2.60
2023-01-07T21:18:20.537Z,2.50
2023-01-07T21:22:23.015Z,2.50
2023-01-07T21:26:25.168Z,2.50
2023-01-07T21:30:28.232Z,1.80
2023-01-07T21:34:30.359Z,1.80
2023-01-07T21:38:32.226Z,2.20
2023-01-07T21:42:37.021Z,2.20
2023-01-07T21:46:39.179Z,2.40
2023-01-07T21:50:41.029Z,2.40
2023-01-07T21:54:42.847Z,2.30
2023-01-07T21:58:48.454Z,2.20
2023-01-07T22:02:50.208Z,2.10
2023-01-07T22:06:51.976Z,2.10
2023-01-07T22:10:54.112Z,2.30
2023-01-07T22:14:55.948Z,2.20
2023-01-07T22:18:57.955Z,2.40
2023-01-07T22:22:59.765Z,2.20
2023-01-07T22:27:01.564Z,2.20
2023-01-07T22:31:18.656Z,2.10
2023-01-07T22:35:20.721Z,1.70
2023-01-07T22:39:39.775Z,1.10
2023-01-07T22:43:42.234Z,1.40
2023-01-07T22:47:47.593Z,1.60
2023-01-07T22:51:49.390Z,1.70
2023-01-07T22:55:51.424Z,1.80
2023-01-07T22:59:53.243Z,1.80
2023-01-07T23:03:55.096Z,1.80
2023-01-07T23:08:00.007Z,1.70
2023-01-07T23:12:01.908Z,1.70
2023-01-07T23:16:06.294Z,1.70
2023-01-07T23:20:08.668Z,1.80
2023-01-07T23:24:11.645Z,1.80
2023-01-07T23:28:13.788Z,1.80
2023-01-07T23:32:15.717Z,1.70
2023-01-07T23:36:17.522Z,1.50
2023-01-07T23:40:19.382Z,1.40
2023-01-07T23:44:21.312Z,1.50
2023-01-07T23:48:23.065Z,1.60
2023-01-07T23:52:24.931Z,1.50
2023-01-07T23:56:26.782Z,1.10
